sensor_id;sensor_type;location;lat;lon;timestamp;P1;durP1;ratioP1;P2;durP2;ratioP2
31112;SDS011;17763;48.730;9.136;2022-07-23T00:02:21;6.28;;;5.70;;
31112;SDS011;17763;48.730;9.136;2022-07-23T00:04:46;5.60;;;5.20;;
31112;SDS011;17763;48.730;9.136;2022-07-23T00:07:12;8.65;;;5.28;;
31112;SDS011;17763;48.730;9.136;2022-07-23T00:09:42;5.07;;;4.68;;
31112;SDS011;17763;48.730;9.136;2022-07-23T00:12:08;5.60;;;5.20;;
31112;SDS011;17763;48.730;9.136;2022-07-23T00:14:34;6.00;;;5.05;;
31112;SDS011;17763;48.730;9.136;2022-07-23T00:16:59;5.88;;;4.93;;
31112;SDS011;17763;48.730;9.136;2022-07-23T00:19:25;9.43;;;4.38;;
31112;SDS011;17763;48.730;9.136;2022-07-23T00:21:51;7.35;;;4.95;;
31112;SDS011;17763;48.730;9.136;2022-07-23T00:24:18;4.85;;;4.45;;
31112;SDS011;17763;48.730;9.136;2022-07-23T00:26:46;5.50;;;4.38;;
31112;SDS011;17763;48.730;9.136;2022-07-23T00:29:12;4.45;;;4.00;;
31112;SDS011;17763;48.730;9.136;2022-07-23T00:31:37;4.85;;;4.43;;
31112;SDS011;17763;48.730;9.136;2022-07-23T00:34:03;4.45;;;3.83;;
31112;SDS011;17763;48.730;9.136;2022-07-23T00:36:29;4.40;;;4.00;;
31112;SDS011;17763;48.730;9.136;2022-07-23T00:38:57;4.38;;;4.07;;
31112;SDS011;17763;48.730;9.136;2022-07-23T00:41:22;4.93;;;4.63;;
31112;SDS011;17763;48.730;9.136;2022-07-23T00:43:48;4.53;;;4.22;;
31112;SDS011;17763;48.730;9.136;2022-07-23T00:46:18;6.13;;;4.80;;
31112;SDS011;17763;48.730;9.136;2022-07-23T00:48:50;4.85;;;4.45;;
31112;SDS011;17763;48.730;9.136;2022-07-23T00:51:17;5.15;;;4.75;;
31112;SDS011;17763;48.730;9.136;2022-07-23T00:53:43;5.10;;;4.75;;
31112;SDS011;17763;48.730;9.136;2022-07-23T00:56:10;4.90;;;4.60;;
31112;SDS011;17763;48.730;9.136;2022-07-23T00:58:35;5.00;;;4.50;;
31112;SDS011;17763;48.730;9.136;2022-07-23T01:01:03;4.70;;;4.30;;
31112;SDS011;17763;48.730;9.136;2022-07-23T01:03:29;5.10;;;4.70;;
31112;SDS011;17763;48.730;9.136;2022-07-23T01:05:55;4.68;;;4.38;;
31112;SDS011;17763;48.730;9.136;2022-07-23T01:08:24;5.90;;;5.35;;
31112;SDS011;17763;48.730;9.136;2022-07-23T01:10:52;4.13;;;3.92;;
31112;SDS011;17763;48.730;9.136;2022-07-23T01:13:17;4.22;;;3.90;;
31112;SDS011;17763;48.730;9.136;2022-07-23T01:15:43;4.70;;;4.40;;
31112;SDS011;17763;48.730;9.136;2022-07-23T01:18:08;4.47;;;4.18;;
31112;SDS011;17763;48.730;9.136;2022-07-23T01:20:37;4.28;;;3.97;;
31112;SDS011;17763;48.730;9.136;2022-07-23T01:23:03;4.13;;;3.83;;
31112;SDS011;17763;48.730;9.136;2022-07-23T01:25:29;5.25;;;4.57;;
31112;SDS011;17763;48.730;9.136;2022-07-23T01:27:55;4.68;;;4.28;;
31112;SDS011;17763;48.730;9.136;2022-07-23T01:30:20;4.97;;;4.30;;
31112;SDS011;17763;48.730;9.136;2022-07-23T01:32:46;5.38;;;4.30;;
31112;SDS011;17763;48.730;9.136;2022-07-23T01:35:12;4.25;;;3.95;;
31112;SDS011;17763;48.730;9.136;2022-07-23T01:37:40;4.82;;;4.00;;
31112;SDS011;17763;48.730;9.136;2022-07-23T01:40:06;4.57;;;4.28;;
31112;SDS011;17763;48.730;9.136;2022-07-23T01:42:34;4.85;;;4.45;;
31112;SDS011;17763;48.730;9.136;2022-07-23T01:45:04;4.93;;;4.53;;
31112;SDS011;17763;48.730;9.136;2022-07-23T01:47:30;4.38;;;4.07;;
31112;SDS011;17763;48.730;9.136;2022-07-23T01:49:56;4.38;;;4.07;;
31112;SDS011;17763;48.730;9.136;2022-07-23T01:52:24;4.60;;;4.30;;
31112;SDS011;17763;48.730;9.136;2022-07-23T01:54:49;4.13;;;3.72;;
31112;SDS011;17763;48.730;9.136;2022-07-23T01:57:15;4.35;;;4.05;;
31112;SDS011;17763;48.730;9.136;2022-07-23T01:59:40;4.75;;;4.35;;
31112;SDS011;17763;48.730;9.136;2022-07-23T02:02:06;4.60;;;4.03;;
31112;SDS011;17763;48.730;9.136;2022-07-23T02:04:34;4.68;;;4.25;;
31112;SDS011;17763;48.730;9.136;2022-07-23T02:07:01;5.28;;;4.78;;
31112;SDS011;17763;48.730;9.136;2022-07-23T02:09:29;4.28;;;3.97;;
31112;SDS011;17763;48.730;9.136;2022-07-23T02:11:55;4.68;;;4.32;;
31112;SDS011;17763;48.730;9.136;2022-07-23T02:14:21;7.82;;;4.60;;
31112;SDS011;17763;48.730;9.136;2022-07-23T02:16:47;5.15;;;4.78;;
31112;SDS011;17763;48.730;9.136;2022-07-23T02:19:13;5.35;;;4.18;;
31112;SDS011;17763;48.730;9.136;2022-07-23T02:21:41;4.88;;;4.50;;
31112;SDS011;17763;48.730;9.136;2022-07-23T02:24:06;4.63;;;4.32;;
31112;SDS011;17763;48.730;9.136;2022-07-23T02:26:32;4.75;;;4.35;;
31112;SDS011;17763;48.730;9.136;2022-07-23T02:29:03;4.65;;;4.35;;
31112;SDS011;17763;48.730;9.136;2022-07-23T02:31:29;4.40;;;4.05;;
31112;SDS011;17763;48.730;9.136;2022-07-23T02:33:58;4.75;;;4.35;;
31112;SDS011;17763;48.730;9.136;2022-07-23T02:36:24;4.28;;;3.97;;
31112;SDS011;17763;48.730;9.136;2022-07-23T02:38:49;7.05;;;4.63;;
31112;SDS011;17763;48.730;9.136;2022-07-23T02:41:17;4.28;;;3.95;;
31112;SDS011;17763;48.730;9.136;2022-07-23T02:43:43;6.82;;;4.88;;
31112;SDS011;17763;48.730;9.136;2022-07-23T02:46:11;6.88;;;4.45;;
31112;SDS011;17763;48.730;9.136;2022-07-23T02:48:39;7.82;;;4.55;;
31112;SDS011;17763;48.730;9.136;2022-07-23T02:51:04;4.88;;;4.47;;
31112;SDS011;17763;48.730;9.136;2022-07-23T02:53:30;6.25;;;4.75;;
31112;SDS011;17763;48.730;9.136;2022-07-23T02:55:56;4.72;;;4.47;;
31112;SDS011;17763;48.730;9.136;2022-07-23T02:58:21;4.93;;;4.53;;
31112;SDS011;17763;48.730;9.136;2022-07-23T03:00:50;5.57;;;4.88;;
31112;SDS011;17763;48.730;9.136;2022-07-23T03:03:15;5.50;;;5.10;;
31112;SDS011;17763;48.730;9.136;2022-07-23T03:05:41;4.97;;;4.57;;
31112;SDS011;17763;48.730;9.136;2022-07-23T03:08:09;5.57;;;5.07;;
31112;SDS011;17763;48.730;9.136;2022-07-23T03:10:34;6.95;;;5.25;;
31112;SDS011;17763;48.730;9.136;2022-07-23T03:13:00;5.30;;;4.80;;
31112;SDS011;17763;48.730;9.136;2022-07-23T03:15:25;5.72;;;5.32;;
31112;SDS011;17763;48.730;9.136;2022-07-23T03:17:56;5.97;;;5.47;;
31112;SDS011;17763;48.730;9.136;2022-07-23T03:20:24;5.35;;;4.85;;
31112;SDS011;17763;48.730;9.136;2022-07-23T03:22:49;5.47;;;4.97;;
31112;SDS011;17763;48.730;9.136;2022-07-23T03:25:17;5.60;;;5.10;;
31112;SDS011;17763;48.730;9.136;2022-07-23T03:27:45;5.72;;;5.32;;
31112;SDS011;17763;48.730;9.136;2022-07-23T03:30:11;7.05;;;4.88;;
31112;SDS011;17763;48.730;9.136;2022-07-23T03:32:37;4.95;;;4.55;;
31112;SDS011;17763;48.730;9.136;2022-07-23T03:35:03;5.50;;;4.95;;
31112;SDS011;17763;48.730;9.136;2022-07-23T03:37:29;6.38;;;5.03;;
31112;SDS011;17763;48.730;9.136;2022-07-23T03:39:55;5.85;;;5.35;;
31112;SDS011;17763;48.730;9.136;2022-07-23T03:42:20;5.45;;;5.05;;
31112;SDS011;17763;48.730;9.136;2022-07-23T03:44:46;4.80;;;4.50;;
31112;SDS011;17763;48.730;9.136;2022-07-23T03:47:12;5.80;;;5.30;;
31112;SDS011;17763;48.730;9.136;2022-07-23T03:49:37;5.07;;;4.45;;
31112;SDS011;17763;48.730;9.136;2022-07-23T03:52:05;5.35;;;4.95;;
31112;SDS011;17763;48.730;9.136;2022-07-23T03:54:31;5.20;;;4.70;;
31112;SDS011;17763;48.730;9.136;2022-07-23T03:56:57;5.47;;;5.07;;
31112;SDS011;17763;48.730;9.136;2022-07-23T03:59:24;5.10;;;4.70;;
31112;SDS011;17763;48.730;9.136;2022-07-23T04:01:50;5.85;;;5.35;;
31112;SDS011;17763;48.730;9.136;2022-07-23T04:04:16;5.07;;;4.70;;
31112;SDS011;17763;48.730;9.136;2022-07-23T04:06:44;5.22;;;4.65;;
31112;SDS011;17763;48.730;9.136;2022-07-23T04:09:10;7.57;;;4.68;;
31112;SDS011;17763;48.730;9.136;2022-07-23T04:11:38;5.50;;;5.10;;
31112;SDS011;17763;48.730;9.136;2022-07-23T04:14:04;5.28;;;4.97;;
31112;SDS011;17763;48.730;9.136;2022-07-23T04:16:29;5.30;;;4.90;;
31112;SDS011;17763;48.730;9.136;2022-07-23T04:18:58;5.65;;;5.25;;
31112;SDS011;17763;48.730;9.136;2022-07-23T04:21:24;5.28;;;4.78;;
31112;SDS011;17763;48.730;9.136;2022-07-23T04:23:49;5.53;;;5.03;;
31112;SDS011;17763;48.730;9.136;2022-07-23T04:26:15;5.50;;;5.00;;
31112;SDS011;17763;48.730;9.136;2022-07-23T04:28:43;5.60;;;5.18;;
31112;SDS011;17763;48.730;9.136;2022-07-23T04:31:08;5.78;;;4.90;;
31112;SDS011;17763;48.730;9.136;2022-07-23T04:33:34;6.00;;;5.55;;
31112;SDS011;17763;48.730;9.136;2022-07-23T04:35:59;5.55;;;5.10;;
31112;SDS011;17763;48.730;9.136;2022-07-23T04:38:27;5.35;;;4.85;;
31112;SDS011;17763;48.730;9.136;2022-07-23T04:40:55;5.80;;;5.28;;
31112;SDS011;17763;48.730;9.136;2022-07-23T04:43:23;5.50;;;5.10;;
31112;SDS011;17763;48.730;9.136;2022-07-23T04:45:49;5.82;;;5.22;;
31112;SDS011;17763;48.730;9.136;2022-07-23T04:48:14;4.93;;;4.63;;
31112;SDS011;17763;48.730;9.136;2022-07-23T04:50:40;5.40;;;4.90;;
31112;SDS011;17763;48.730;9.136;2022-07-23T04:53:08;4.65;;;4.28;;
31112;SDS011;17763;48.730;9.136;2022-07-23T04:55:36;5.43;;;4.95;;
31112;SDS011;17763;48.730;9.136;2022-07-23T04:58:01;5.28;;;4.78;;
31112;SDS011;17763;48.730;9.136;2022-07-23T05:00:29;5.88;;;5.38;;
31112;SDS011;17763;48.730;9.136;2022-07-23T05:02:55;5.70;;;5.30;;
31112;SDS011;17763;48.730;9.136;2022-07-23T05:05:20;6.05;;;5.55;;
31112;SDS011;17763;48.730;9.136;2022-07-23T05:07:46;6.35;;;5.78;;
31112;SDS011;17763;48.730;9.136;2022-07-23T05:10:11;6.60;;;5.72;;
31112;SDS011;17763;48.730;9.136;2022-07-23T05:12:39;5.63;;;5.32;;
31112;SDS011;17763;48.730;9.136;2022-07-23T05:15:07;5.28;;;4.78;;
31112;SDS011;17763;48.730;9.136;2022-07-23T05:17:33;5.97;;;5.57;;
31112;SDS011;17763;48.730;9.136;2022-07-23T05:20:01;5.55;;;5.15;;
31112;SDS011;17763;48.730;9.136;2022-07-23T05:22:28;5.90;;;5.40;;
31112;SDS011;17763;48.730;9.136;2022-07-23T05:24:54;6.13;;;5.63;;
31112;SDS011;17763;48.730;9.136;2022-07-23T05:27:21;5.88;;;5.47;;
31112;SDS011;17763;48.730;9.136;2022-07-23T05:29:47;5.90;;;5.40;;
31112;SDS011;17763;48.730;9.136;2022-07-23T05:32:12;6.32;;;5.82;;
31112;SDS011;17763;48.730;9.136;2022-07-23T05:34:38;6.05;;;5.55;;
31112;SDS011;17763;48.730;9.136;2022-07-23T05:37:06;5.70;;;5.38;;
31112;SDS011;17763;48.730;9.136;2022-07-23T05:39:32;5.82;;;5.40;;
31112;SDS011;17763;48.730;9.136;2022-07-23T05:41:58;6.10;;;5.70;;
31112;SDS011;17763;48.730;9.136;2022-07-23T05:44:25;6.30;;;5.70;;
31112;SDS011;17763;48.730;9.136;2022-07-23T05:46:52;7.38;;;5.53;;
31112;SDS011;17763;48.730;9.136;2022-07-23T05:49:18;6.28;;;5.78;;
31112;SDS011;17763;48.730;9.136;2022-07-23T05:51:46;6.00;;;5.60;;
31112;SDS011;17763;48.730;9.136;2022-07-23T05:54:14;5.95;;;5.47;;
31112;SDS011;17763;48.730;9.136;2022-07-23T05:56:39;7.30;;;6.70;;
31112;SDS011;17763;48.730;9.136;2022-07-23T05:59:05;6.45;;;5.85;;
31112;SDS011;17763;48.730;9.136;2022-07-23T06:01:33;6.50;;;6.00;;
31112;SDS011;17763;48.730;9.136;2022-07-23T06:03:59;6.68;;;5.95;;
31112;SDS011;17763;48.730;9.136;2022-07-23T06:06:24;5.97;;;5.55;;
31112;SDS011;17763;48.730;9.136;2022-07-23T06:08:50;6.80;;;6.10;;
31112;SDS011;17763;48.730;9.136;2022-07-23T06:11:15;6.38;;;5.88;;
31112;SDS011;17763;48.730;9.136;2022-07-23T06:13:45;6.20;;;5.70;;
31112;SDS011;17763;48.730;9.136;2022-07-23T06:16:11;7.25;;;5.82;;
31112;SDS011;17763;48.730;9.136;2022-07-23T06:18:37;6.90;;;6.32;;
31112;SDS011;17763;48.730;9.136;2022-07-23T06:21:02;7.22;;;6.70;;
31112;SDS011;17763;48.730;9.136;2022-07-23T06:23:28;6.70;;;6.20;;
31112;SDS011;17763;48.730;9.136;2022-07-23T06:25:55;7.95;;;6.45;;
31112;SDS011;17763;48.730;9.136;2022-07-23T06:28:23;6.88;;;6.28;;
31112;SDS011;17763;48.730;9.136;2022-07-23T06:30:49;7.03;;;6.45;;
31112;SDS011;17763;48.730;9.136;2022-07-23T06:33:15;7.90;;;7.22;;
31112;SDS011;17763;48.730;9.136;2022-07-23T06:35:45;6.93;;;6.28;;
31112;SDS011;17763;48.730;9.136;2022-07-23T06:38:13;10.63;;;6.00;;
31112;SDS011;17763;48.730;9.136;2022-07-23T06:40:41;6.90;;;6.22;;
31112;SDS011;17763;48.730;9.136;2022-07-23T06:43:09;6.57;;;6.03;;
31112;SDS011;17763;48.730;9.136;2022-07-23T06:45:37;8.32;;;7.07;;
31112;SDS011;17763;48.730;9.136;2022-07-23T06:48:08;5.90;;;5.32;;
31112;SDS011;17763;48.730;9.136;2022-07-23T06:50:35;8.43;;;6.15;;
31112;SDS011;17763;48.730;9.136;2022-07-23T06:53:03;6.75;;;6.15;;
31112;SDS011;17763;48.730;9.136;2022-07-23T06:55:29;7.18;;;6.50;;
31112;SDS011;17763;48.730;9.136;2022-07-23T06:57:56;6.35;;;5.85;;
31112;SDS011;17763;48.730;9.136;2022-07-23T07:00:23;6.75;;;6.13;;
31112;SDS011;17763;48.730;9.136;2022-07-23T07:02:55;6.55;;;6.13;;
31112;SDS011;17763;48.730;9.136;2022-07-23T07:05:23;6.72;;;6.10;;
31112;SDS011;17763;48.730;9.136;2022-07-23T07:07:50;6.50;;;5.93;;
31112;SDS011;17763;48.730;9.136;2022-07-23T07:10:16;6.97;;;6.30;;
31112;SDS011;17763;48.730;9.136;2022-07-23T07:12:42;6.63;;;6.07;;
31112;SDS011;17763;48.730;9.136;2022-07-23T07:15:08;6.00;;;5.50;;
31112;SDS011;17763;48.730;9.136;2022-07-23T07:17:37;6.47;;;5.82;;
31112;SDS011;17763;48.730;9.136;2022-07-23T07:20:02;7.15;;;6.10;;
31112;SDS011;17763;48.730;9.136;2022-07-23T07:22:29;7.20;;;5.85;;
31112;SDS011;17763;48.730;9.136;2022-07-23T07:24:54;7.45;;;6.35;;
31112;SDS011;17763;48.730;9.136;2022-07-23T07:27:20;6.40;;;5.90;;
31112;SDS011;17763;48.730;9.136;2022-07-23T07:29:45;7.53;;;5.95;;
31112;SDS011;17763;48.730;9.136;2022-07-23T07:32:11;7.38;;;6.35;;
31112;SDS011;17763;48.730;9.136;2022-07-23T07:34:37;6.60;;;5.90;;
31112;SDS011;17763;48.730;9.136;2022-07-23T07:37:04;6.43;;;5.82;;
31112;SDS011;17763;48.730;9.136;2022-07-23T07:39:30;6.80;;;6.10;;
31112;SDS011;17763;48.730;9.136;2022-07-23T07:41:56;8.43;;;5.88;;
31112;SDS011;17763;48.730;9.136;2022-07-23T07:44:21;6.88;;;6.25;;
31112;SDS011;17763;48.730;9.136;2022-07-23T07:46:50;6.57;;;6.07;;
31112;SDS011;17763;48.730;9.136;2022-07-23T07:49:18;8.50;;;6.10;;
31112;SDS011;17763;48.730;9.136;2022-07-23T07:51:44;6.88;;;6.18;;
31112;SDS011;17763;48.730;9.136;2022-07-23T07:54:11;8.40;;;6.75;;
31112;SDS011;17763;48.730;9.136;2022-07-23T07:56:37;8.27;;;6.60;;
31112;SDS011;17763;48.730;9.136;2022-07-23T07:59:05;11.05;;;7.20;;
31112;SDS011;17763;48.730;9.136;2022-07-23T08:01:31;8.98;;;6.53;;
31112;SDS011;17763;48.730;9.136;2022-07-23T08:03:56;6.50;;;6.00;;
31112;SDS011;17763;48.730;9.136;2022-07-23T08:06:22;7.40;;;6.10;;
31112;SDS011;17763;48.730;9.136;2022-07-23T08:08:48;6.50;;;5.82;;
31112;SDS011;17763;48.730;9.136;2022-07-23T08:11:13;7.38;;;6.68;;
31112;SDS011;17763;48.730;9.136;2022-07-23T08:13:39;6.28;;;5.82;;
31112;SDS011;17763;48.730;9.136;2022-07-23T08:16:05;6.43;;;5.93;;
31112;SDS011;17763;48.730;9.136;2022-07-23T08:18:31;6.38;;;5.97;;
31112;SDS011;17763;48.730;9.136;2022-07-23T08:20:57;6.43;;;5.85;;
31112;SDS011;17763;48.730;9.136;2022-07-23T08:23:23;6.38;;;5.82;;
31112;SDS011;17763;48.730;9.136;2022-07-23T08:25:48;6.40;;;5.70;;
31112;SDS011;17763;48.730;9.136;2022-07-23T08:28:14;7.03;;;6.50;;
31112;SDS011;17763;48.730;9.136;2022-07-23T08:30:43;6.30;;;5.55;;
31112;SDS011;17763;48.730;9.136;2022-07-23T08:33:10;6.65;;;6.15;;
31112;SDS011;17763;48.730;9.136;2022-07-23T08:35:38;6.05;;;5.53;;
31112;SDS011;17763;48.730;9.136;2022-07-23T08:38:06;6.55;;;5.95;;
31112;SDS011;17763;48.730;9.136;2022-07-23T08:40:38;6.70;;;6.20;;
31112;SDS011;17763;48.730;9.136;2022-07-23T08:43:07;6.72;;;6.07;;
31112;SDS011;17763;48.730;9.136;2022-07-23T08:45:37;6.40;;;6.00;;
31112;SDS011;17763;48.730;9.136;2022-07-23T08:48:11;11.38;;;6.70;;
31112;SDS011;17763;48.730;9.136;2022-07-23T08:50:38;6.20;;;5.80;;
31112;SDS011;17763;48.730;9.136;2022-07-23T08:53:08;6.00;;;5.43;;
31112;SDS011;17763;48.730;9.136;2022-07-23T08:55:42;6.32;;;5.88;;
31112;SDS011;17763;48.730;9.136;2022-07-23T08:58:16;11.20;;;6.30;;
31112;SDS011;17763;48.730;9.136;2022-07-23T09:00:43;5.93;;;5.22;;
31112;SDS011;17763;48.730;9.136;2022-07-23T09:03:19;7.05;;;6.43;;
31112;SDS011;17763;48.730;9.136;2022-07-23T09:05:46;6.07;;;5.68;;
31112;SDS011;17763;48.730;9.136;2022-07-23T09:15:50;6.40;;;5.90;;
31112;SDS011;17763;48.730;9.136;2022-07-23T09:18:27;6.07;;;5.57;;
31112;SDS011;17763;48.730;9.136;2022-07-23T09:21:05;5.30;;;5.00;;
31112;SDS011;17763;48.730;9.136;2022-07-23T09:23:52;5.60;;;5.20;;
31112;SDS011;17763;48.730;9.136;2022-07-23T09:26:37;6.32;;;5.68;;
31112;SDS011;17763;48.730;9.136;2022-07-23T09:31:47;5.63;;;5.22;;
31112;SDS011;17763;48.730;9.136;2022-07-23T09:36:50;6.75;;;6.05;;
31112;SDS011;17763;48.730;9.136;2022-07-23T09:39:28;5.72;;;5.32;;
31112;SDS011;17763;48.730;9.136;2022-07-23T09:41:55;5.90;;;5.50;;
31112;SDS011;17763;48.730;9.136;2022-07-23T09:44:22;6.75;;;6.15;;
31112;SDS011;17763;48.730;9.136;2022-07-23T09:46:50;5.88;;;5.32;;
31112;SDS011;17763;48.730;9.136;2022-07-23T09:49:22;6.13;;;5.72;;
31112;SDS011;17763;48.730;9.136;2022-07-23T09:56:54;6.07;;;5.68;;
31112;SDS011;17763;48.730;9.136;2022-07-23T09:59:26;6.80;;;6.18;;
31112;SDS011;17763;48.730;9.136;2022-07-23T10:01:53;6.22;;;5.63;;
31112;SDS011;17763;48.730;9.136;2022-07-23T10:04:21;6.70;;;5.82;;
31112;SDS011;17763;48.730;9.136;2022-07-23T10:06:51;6.35;;;5.85;;
31112;SDS011;17763;48.730;9.136;2022-07-23T10:09:24;5.57;;;5.20;;
31112;SDS011;17763;48.730;9.136;2022-07-23T10:12:04;6.43;;;5.85;;
31112;SDS011;17763;48.730;9.136;2022-07-23T10:14:45;6.82;;;6.32;;
31112;SDS011;17763;48.730;9.136;2022-07-23T10:17:11;6.80;;;6.22;;
31112;SDS011;17763;48.730;9.136;2022-07-23T10:19:38;6.00;;;5.53;;
31112;SDS011;17763;48.730;9.136;2022-07-23T10:22:11;6.43;;;5.82;;
31112;SDS011;17763;48.730;9.136;2022-07-23T10:32:45;5.72;;;5.32;;
31112;SDS011;17763;48.730;9.136;2022-07-23T10:35:21;6.10;;;5.53;;
31112;SDS011;17763;48.730;9.136;2022-07-23T10:37:49;6.82;;;6.22;;
31112;SDS011;17763;48.730;9.136;2022-07-23T10:40:20;6.45;;;5.90;;
31112;SDS011;17763;48.730;9.136;2022-07-23T10:42:49;6.55;;;5.93;;
31112;SDS011;17763;48.730;9.136;2022-07-23T10:47:54;5.93;;;5.53;;
31112;SDS011;17763;48.730;9.136;2022-07-23T10:57:56;6.35;;;5.85;;
31112;SDS011;17763;48.730;9.136;2022-07-23T11:00:23;6.45;;;6.05;;
31112;SDS011;17763;48.730;9.136;2022-07-23T11:02:51;6.07;;;5.57;;
31112;SDS011;17763;48.730;9.136;2022-07-23T11:05:20;8.32;;;6.47;;
31112;SDS011;17763;48.730;9.136;2022-07-23T11:10:40;6.90;;;6.40;;
31112;SDS011;17763;48.730;9.136;2022-07-23T11:34:47;6.80;;;6.20;;
31112;SDS011;17763;48.730;9.136;2022-07-23T11:37:32;6.30;;;5.90;;
31112;SDS011;17763;48.730;9.136;2022-07-23T11:40:11;6.53;;;6.13;;
31112;SDS011;17763;48.730;9.136;2022-07-23T11:42:51;6.53;;;6.03;;
31112;SDS011;17763;48.730;9.136;2022-07-23T11:45:18;7.68;;;6.97;;
31112;SDS011;17763;48.730;9.136;2022-07-23T11:47:44;6.60;;;6.10;;
31112;SDS011;17763;48.730;9.136;2022-07-23T11:50:09;6.53;;;6.05;;
31112;SDS011;17763;48.730;9.136;2022-07-23T11:52:38;6.43;;;5.93;;
31112;SDS011;17763;48.730;9.136;2022-07-23T11:55:07;6.43;;;5.82;;
31112;SDS011;17763;48.730;9.136;2022-07-23T11:57:39;6.82;;;6.32;;
31112;SDS011;17763;48.730;9.136;2022-07-23T12:02:38;6.30;;;5.78;;
31112;SDS011;17763;48.730;9.136;2022-07-23T12:05:12;6.22;;;5.80;;
31112;SDS011;17763;48.730;9.136;2022-07-23T12:07:40;6.72;;;6.05;;
31112;SDS011;17763;48.730;9.136;2022-07-23T12:12:38;6.95;;;5.90;;
31112;SDS011;17763;48.730;9.136;2022-07-23T12:15:12;5.97;;;5.57;;
31112;SDS011;17763;48.730;9.136;2022-07-23T12:17:43;6.18;;;5.68;;
31112;SDS011;17763;48.730;9.136;2022-07-23T12:20:14;6.60;;;5.93;;
31112;SDS011;17763;48.730;9.136;2022-07-23T12:22:45;6.38;;;5.97;;
31112;SDS011;17763;48.730;9.136;2022-07-23T12:25:17;6.57;;;6.10;;
31112;SDS011;17763;48.730;9.136;2022-07-23T12:27:45;7.05;;;6.05;;
31112;SDS011;17763;48.730;9.136;2022-07-23T12:32:54;6.80;;;6.20;;
31112;SDS011;17763;48.730;9.136;2022-07-23T12:35:22;6.63;;;6.13;;
31112;SDS011;17763;48.730;9.136;2022-07-23T12:37:58;6.65;;;6.15;;
31112;SDS011;17763;48.730;9.136;2022-07-23T12:40:30;6.80;;;6.30;;
31112;SDS011;17763;48.730;9.136;2022-07-23T12:42:59;7.68;;;6.88;;
31112;SDS011;17763;48.730;9.136;2022-07-23T12:45:41;6.35;;;5.85;;
31112;SDS011;17763;48.730;9.136;2022-07-23T12:48:16;6.57;;;6.10;;
31112;SDS011;17763;48.730;9.136;2022-07-23T12:50:48;7.32;;;6.72;;
31112;SDS011;17763;48.730;9.136;2022-07-23T12:53:21;7.07;;;6.57;;
31112;SDS011;17763;48.730;9.136;2022-07-23T12:55:56;6.65;;;6.00;;
31112;SDS011;17763;48.730;9.136;2022-07-23T12:58:49;6.38;;;5.88;;
31112;SDS011;17763;48.730;9.136;2022-07-23T13:06:30;8.27;;;6.80;;
31112;SDS011;17763;48.730;9.136;2022-07-23T13:09:03;7.15;;;6.40;;
31112;SDS011;17763;48.730;9.136;2022-07-23T13:11:31;7.22;;;6.68;;
31112;SDS011;17763;48.730;9.136;2022-07-23T13:13:57;6.75;;;6.15;;
31112;SDS011;17763;48.730;9.136;2022-07-23T13:16:25;7.03;;;6.35;;
31112;SDS011;17763;48.730;9.136;2022-07-23T13:18:51;6.93;;;6.32;;
31112;SDS011;17763;48.730;9.136;2022-07-23T13:21:17;6.18;;;5.78;;
31112;SDS011;17763;48.730;9.136;2022-07-23T13:23:43;6.70;;;6.05;;
31112;SDS011;17763;48.730;9.136;2022-07-23T13:26:09;6.40;;;5.90;;
31112;SDS011;17763;48.730;9.136;2022-07-23T13:28:35;8.02;;;7.28;;
31112;SDS011;17763;48.730;9.136;2022-07-23T13:31:03;6.90;;;6.38;;
31112;SDS011;17763;48.730;9.136;2022-07-23T13:33:31;8.27;;;6.67;;
31112;SDS011;17763;48.730;9.136;2022-07-23T13:35:57;6.82;;;6.30;;
31112;SDS011;17763;48.730;9.136;2022-07-23T13:38:22;6.43;;;5.93;;
31112;SDS011;17763;48.730;9.136;2022-07-23T13:40:51;7.72;;;7.00;;
31112;SDS011;17763;48.730;9.136;2022-07-23T13:45:47;6.63;;;6.13;;
31112;SDS011;17763;48.730;9.136;2022-07-23T13:48:13;6.95;;;5.95;;
31112;SDS011;17763;48.730;9.136;2022-07-23T13:50:39;6.95;;;6.35;;
31112;SDS011;17763;48.730;9.136;2022-07-23T13:53:07;7.40;;;6.70;;
31112;SDS011;17763;48.730;9.136;2022-07-23T13:55:36;6.90;;;6.25;;
31112;SDS011;17763;48.730;9.136;2022-07-23T13:58:03;6.78;;;6.28;;
31112;SDS011;17763;48.730;9.136;2022-07-23T14:00:33;7.95;;;6.50;;
31112;SDS011;17763;48.730;9.136;2022-07-23T14:03:02;7.30;;;6.70;;
31112;SDS011;17763;48.730;9.136;2022-07-23T14:05:31;8.27;;;6.88;;
31112;SDS011;17763;48.730;9.136;2022-07-23T14:07:56;7.63;;;7.07;;
31112;SDS011;17763;48.730;9.136;2022-07-23T14:10:24;8.52;;;6.53;;
31112;SDS011;17763;48.730;9.136;2022-07-23T14:12:53;7.40;;;6.80;;
31112;SDS011;17763;48.730;9.136;2022-07-23T14:15:21;8.60;;;6.87;;
31112;SDS011;17763;48.730;9.136;2022-07-23T14:17:50;7.40;;;6.72;;
31112;SDS011;17763;48.730;9.136;2022-07-23T14:20:15;7.35;;;6.68;;
31112;SDS011;17763;48.730;9.136;2022-07-23T14:22:43;7.15;;;6.60;;
31112;SDS011;17763;48.730;9.136;2022-07-23T14:25:12;8.63;;;6.80;;
31112;SDS011;17763;48.730;9.136;2022-07-23T14:27:38;7.03;;;6.43;;
31112;SDS011;17763;48.730;9.136;2022-07-23T14:30:05;7.78;;;7.05;;
31112;SDS011;17763;48.730;9.136;2022-07-23T14:32:34;7.20;;;6.65;;
31112;SDS011;17763;48.730;9.136;2022-07-23T14:35:00;7.60;;;6.78;;
31112;SDS011;17763;48.730;9.136;2022-07-23T14:37:27;7.30;;;6.70;;
31112;SDS011;17763;48.730;9.136;2022-07-23T14:39:53;7.55;;;6.75;;
31112;SDS011;17763;48.730;9.136;2022-07-23T14:42:18;6.50;;;6.00;;
31112;SDS011;17763;48.730;9.136;2022-07-23T14:44:44;7.05;;;6.50;;
31112;SDS011;17763;48.730;9.136;2022-07-23T14:47:12;6.28;;;5.88;;
31112;SDS011;17763;48.730;9.136;2022-07-23T14:49:38;6.20;;;5.75;;
31112;SDS011;17763;48.730;9.136;2022-07-23T14:52:06;7.07;;;6.38;;
31112;SDS011;17763;48.730;9.136;2022-07-23T14:54:32;7.10;;;6.50;;
31112;SDS011;17763;48.730;9.136;2022-07-23T14:56:58;7.15;;;6.65;;
31112;SDS011;17763;48.730;9.136;2022-07-23T14:59:28;7.60;;;6.50;;
31112;SDS011;17763;48.730;9.136;2022-07-23T15:01:56;6.93;;;6.43;;
31112;SDS011;17763;48.730;9.136;2022-07-23T15:04:25;7.60;;;6.90;;
31112;SDS011;17763;48.730;9.136;2022-07-23T15:06:55;6.63;;;6.13;;
31112;SDS011;17763;48.730;9.136;2022-07-23T15:09:21;6.68;;;6.22;;
31112;SDS011;17763;48.730;9.136;2022-07-23T15:11:49;6.75;;;6.13;;
31112;SDS011;17763;48.730;9.136;2022-07-23T15:14:16;6.57;;;6.07;;
31112;SDS011;17763;48.730;9.136;2022-07-23T15:16:42;7.07;;;6.50;;
31112;SDS011;17763;48.730;9.136;2022-07-23T15:19:08;7.10;;;6.40;;
31112;SDS011;17763;48.730;9.136;2022-07-23T15:21:35;6.75;;;6.25;;
31112;SDS011;17763;48.730;9.136;2022-07-23T15:24:03;7.32;;;6.68;;
31112;SDS011;17763;48.730;9.136;2022-07-23T15:26:33;7.15;;;6.55;;
31112;SDS011;17763;48.730;9.136;2022-07-23T15:29:01;7.43;;;6.65;;
31112;SDS011;17763;48.730;9.136;2022-07-23T15:31:28;6.85;;;6.25;;
31112;SDS011;17763;48.730;9.136;2022-07-23T15:33:54;7.30;;;6.70;;
31112;SDS011;17763;48.730;9.136;2022-07-23T15:36:22;7.13;;;6.55;;
31112;SDS011;17763;48.730;9.136;2022-07-23T15:38:48;7.10;;;6.45;;
31112;SDS011;17763;48.730;9.136;2022-07-23T15:41:16;7.05;;;6.35;;
31112;SDS011;17763;48.730;9.136;2022-07-23T15:43:41;6.90;;;6.20;;
31112;SDS011;17763;48.730;9.136;2022-07-23T15:46:07;8.05;;;6.60;;
31112;SDS011;17763;48.730;9.136;2022-07-23T15:48:35;7.20;;;6.68;;
31112;SDS011;17763;48.730;9.136;2022-07-23T15:51:02;8.13;;;6.30;;
31112;SDS011;17763;48.730;9.136;2022-07-23T15:53:30;7.60;;;6.90;;
31112;SDS011;17763;48.730;9.136;2022-07-23T15:55:57;6.95;;;6.43;;
31112;SDS011;17763;48.730;9.136;2022-07-23T15:58:28;8.15;;;7.45;;
31112;SDS011;17763;48.730;9.136;2022-07-23T16:00:54;7.30;;;6.55;;
31112;SDS011;17763;48.730;9.136;2022-07-23T16:03:22;7.13;;;6.63;;
31112;SDS011;17763;48.730;9.136;2022-07-23T16:05:48;7.25;;;6.75;;
31112;SDS011;17763;48.730;9.136;2022-07-23T16:08:14;6.88;;;6.38;;